Time;durP1;ratioP1;P1;durP2;ratioP2;P2;SDS_P1;SDS_P2;PMS_P1;PMS_P2;Temp;Humidity;BMP_temperature;BMP_pressure;BME280_temperature;BME280_humidity;BME280_pressure;Samples;Min_cycle;Max_cycle;Signal;HPM_P1;HPM_P2
2022/07/08 00:02:17;;;;;;;2.55;2.15;;;;;;;18.12;100.00;99122.25;4419485;32;20127;-68
2022/07/08 00:04:44;;;;;;;2.87;2.22;;;;;;;18.10;100.00;99120.94;4419616;32;20214;-68
2022/07/08 00:07:10;;;;;;;4.18;2.28;;;;;;;17.83;100.00;99084.28;4418768;32;20034;-68
2022/07/08 00:09:36;;;;;;;4.55;2.15;;;;;;;17.86;100.00;99088.31;4419311;32;20034;-68
2022/07/08 00:12:03;;;;;;;5.05;2.83;;;;;;;17.98;100.00;99113.19;4418735;32;20067;-68
2022/07/08 00:14:29;;;;;;;4.62;3.00;;;;;;;17.98;100.00;99129.53;4419492;32;20426;-69
2022/07/08 00:16:56;;;;;;;3.55;2.50;;;;;;;17.94;100.00;99117.66;4405587;32;20372;-70
2022/07/08 00:19:22;;;;;;;7.97;2.72;;;;;;;17.72;100.00;99093.72;4415921;32;20039;-70
2022/07/08 00:21:49;;;;;;;2.15;2.00;;;;;;;17.94;100.00;99134.00;4418598;32;20047;-69
2022/07/08 00:24:16;;;;;;;2.80;2.53;;;;;;;17.89;100.00;99131.34;4419104;32;20042;-68
2022/07/08 00:26:46;;;;;;;13.02;2.97;;;;;;;17.86;100.00;99126.47;4419081;32;20068;-68
2022/07/08 00:29:12;;;;;;;3.87;2.87;;;;;;;17.91;100.00;99137.31;4419131;32;20034;-69
2022/07/08 00:31:39;;;;;;;3.72;2.28;;;;;;;17.91;100.00;99134.56;4418227;32;20065;-68
2022/07/08 00:34:05;;;;;;;4.22;2.67;;;;;;;17.84;100.00;99125.91;4417208;32;20064;-69
2022/07/08 00:36:32;;;;;;;4.68;2.72;;;;;;;17.91;100.00;99140.03;4417633;32;20039;-71
2022/07/08 00:38:58;;;;;;;9.57;2.80;;;;;;;17.85;100.00;99130.28;4418451;32;20060;-69
2022/07/08 00:41:24;;;;;;;4.47;3.08;;;;;;;17.71;100.00;99097.53;4418974;32;20309;-69
2022/07/08 00:43:51;;;;;;;6.30;3.80;;;;;;;17.71;100.00;99095.63;4418851;32;20042;-68
2022/07/08 00:46:17;;;;;;;3.00;2.70;;;;;;;17.98;100.00;99135.00;4418992;32;20023;-69
2022/07/08 00:48:44;;;;;;;6.87;3.22;;;;;;;17.97;100.00;99133.41;4418952;32;20453;-69
2022/07/08 00:51:13;;;;;;;10.38;3.53;;;;;;;17.67;100.00;99102.75;4418665;32;20064;-69
2022/07/08 00:53:42;;;;;;;5.62;2.80;;;;;;;17.89;100.00;99137.59;4418557;32;20108;-69
2022/07/08 00:56:09;;;;;;;9.52;2.70;;;;;;;17.60;100.00;99108.56;4417746;32;20043;-71
2022/07/08 00:58:36;;;;;;;3.60;3.12;;;;;;;17.65;100.00;99110.41;4418557;32;20038;-68
2022/07/08 01:01:03;;;;;;;5.07;3.47;;;;;;;17.84;100.00;99142.25;4418767;32;20592;-68
2022/07/08 01:03:29;;;;;;;4.15;2.60;;;;;;;17.79;100.00;99146.69;4418557;32;20056;-68
2022/07/08 01:05:56;;;;;;;2.67;2.50;;;;;;;17.53;100.00;99118.22;4418422;32;20376;-68
2022/07/08 01:08:23;;;;;;;6.28;2.92;;;;;;;17.77;100.00;99146.19;4418503;32;20116;-69
2022/07/08 01:10:49;;;;;;;3.67;2.97;;;;;;;17.78;100.00;99147.78;4418674;32;20096;-69
2022/07/08 01:13:18;;;;;;;3.30;2.60;;;;;;;17.83;100.00;99146.09;4418747;32;20399;-68
2022/07/08 01:15:45;;;;;;;3.90;2.50;;;;;;;17.61;100.00;99109.37;4417206;32;20399;-71
2022/07/08 01:18:24;;;;;;;2.87;2.60;;;;;;;17.54;100.00;99117.91;4417695;32;20371;-69
2022/07/08 01:20:51;;;;;;;2.78;2.58;;;;;;;17.74;100.00;99151.41;4418283;32;20461;-71
2022/07/08 01:23:18;;;;;;;3.28;2.92;;;;;;;17.39;100.00;99107.22;4418228;32;20030;-68
2022/07/08 01:25:45;;;;;;;3.17;2.85;;;;;;;17.62;100.00;99146.41;4418596;32;20049;-69
2022/07/08 01:28:13;;;;;;;3.80;2.78;;;;;;;17.56;100.00;99155.72;4404567;32;20404;-69
2022/07/08 01:30:40;;;;;;;5.93;3.83;;;;;;;17.56;100.00;99136.69;4417732;32;20030;-72
2022/07/08 01:33:07;;;;;;;4.78;2.80;;;;;;;17.60;100.00;99151.34;4416968;32;20387;-69
2022/07/08 01:35:34;;;;;;;5.97;2.95;;;;;;;17.65;100.00;99148.53;4418210;32;20059;-68
2022/07/08 01:38:01;;;;;;;5.68;3.03;;;;;;;17.43;100.00;99132.78;4418110;32;20039;-68
2022/07/08 01:40:27;;;;;;;3.17;2.97;;;;;;;17.29;100.00;99113.62;4418053;32;20064;-69
2022/07/08 01:42:53;;;;;;;6.78;2.70;;;;;;;17.30;100.00;99115.25;4417797;32;20042;-70
2022/07/08 01:45:20;;;;;;;8.35;3.80;;;;;;;17.32;100.00;99110.31;4416527;32;20151;-69
2022/07/08 01:47:46;;;;;;;3.92;3.20;;;;;;;17.53;100.00;99156.31;4418031;32;20027;-69
2022/07/08 01:50:13;;;;;;;5.82;2.97;;;;;;;17.22;100.00;99105.00;4418062;32;20067;-69
2022/07/08 01:52:39;;;;;;;3.45;2.60;;;;;;;17.37;100.00;99132.00;4416242;32;20082;-70
2022/07/08 01:55:06;;;;;;;8.90;2.50;;;;;;;17.28;100.00;99117.47;4416577;32;20058;-70
2022/07/08 01:57:34;;;;;;;2.87;2.67;;;;;;;16.98;100.00;99075.94;4418085;32;20046;-69
2022/07/08 02:00:02;;;;;;;4.62;3.25;;;;;;;17.44;100.00;99164.34;4417974;32;20068;-68
2022/07/08 02:02:37;;;;;;;6.93;3.17;;;;;;;17.39;100.00;99162.50;4417979;32;20080;-68
2022/07/08 02:05:04;;;;;;;3.85;2.97;;;;;;;17.14;100.00;99127.44;4417893;32;20039;-69
2022/07/08 02:07:31;;;;;;;4.62;2.95;;;;;;;17.32;100.00;99145.69;4417608;32;20072;-69
2022/07/08 02:09:58;;;;;;;3.05;2.83;;;;;;;17.20;100.00;99131.69;4415513;32;20395;-71
2022/07/08 02:12:24;;;;;;;4.35;3.58;;;;;;;17.40;100.00;99163.28;4416658;32;20390;-70
2022/07/08 02:15:01;;;;;;;7.18;3.15;;;;;;;17.48;100.00;99167.28;4416604;32;20042;-68
2022/07/08 02:17:36;;;;;;;4.12;3.70;;;;;;;17.20;100.00;99127.06;4417535;32;20060;-68
2022/07/08 02:20:05;;;;;;;6.70;3.17;;;;;;;17.45;100.00;99176.03;4417469;32;20050;-69
2022/07/08 02:22:32;;;;;;;7.40;3.12;;;;;;;17.45;100.00;99178.75;4417467;32;20039;-70
2022/07/08 02:24:59;;;;;;;5.80;2.92;;;;;;;17.46;100.00;99172.22;4416508;32;20064;-71
2022/07/08 02:27:26;;;;;;;8.05;3.15;;;;;;;17.16;100.00;99119.78;4416362;32;20391;-69
2022/07/08 02:29:52;;;;;;;6.28;3.60;;;;;;;17.57;100.00;99179.16;4417366;32;20910;-68
2022/07/08 02:32:18;;;;;;;6.55;3.95;;;;;;;17.48;100.00;99180.88;4416577;32;20520;-69
2022/07/08 02:34:45;;;;;;;3.72;3.22;;;;;;;17.46;100.00;99183.09;4417282;32;20399;-68
2022/07/08 02:37:13;;;;;;;7.03;3.15;;;;;;;17.47;100.00;99192.87;4417717;32;20379;-69
2022/07/08 02:39:40;;;;;;;3.70;3.20;;;;;;;17.49;100.00;99188.75;4417521;32;20031;-69
2022/07/08 02:42:08;;;;;;;6.25;3.00;;;;;;;17.40;100.00;99176.91;4417763;32;20038;-69
2022/07/08 02:44:36;;;;;;;3.37;3.12;;;;;;;16.39;100.00;99026.28;4416470;32;20031;-72
2022/07/08 02:47:06;;;;;;;6.80;4.25;;;;;;;17.41;100.00;99192.94;4417103;32;20054;-69
2022/07/08 02:49:32;;;;;;;7.87;3.87;;;;;;;17.49;100.00;99187.97;4403776;32;20067;-70
2022/07/08 02:51:59;;;;;;;4.32;3.20;;;;;;;17.36;100.00;99184.84;4403571;32;20038;-68
2022/07/08 02:54:25;;;;;;;7.95;4.00;;;;;;;17.13;100.00;99153.81;4419114;32;20027;-69
2022/07/08 02:56:51;;;;;;;5.28;3.42;;;;;;;17.46;100.00;99199.44;4418965;32;20046;-68
2022/07/08 02:59:18;;;;;;;5.28;3.12;;;;;;;17.40;100.00;99193.22;4420600;32;20338;-68
2022/07/08 03:01:44;;;;;;;3.65;3.35;;;;;;;17.46;100.00;99194.78;4406050;32;20018;-68
2022/07/08 03:04:11;;;;;;;3.92;3.55;;;;;;;17.29;100.00;99159.88;4417693;32;20038;-69
2022/07/08 03:06:38;;;;;;;3.97;3.67;;;;;;;17.57;100.00;99203.66;4420381;32;20061;-68
2022/07/08 03:09:04;;;;;;;5.72;4.20;;;;;;;17.53;100.00;99194.44;4420515;32;20267;-69
2022/07/08 03:11:30;;;;;;;6.65;3.65;;;;;;;17.45;100.00;99192.34;4420365;32;20076;-69
2022/07/08 03:13:57;;;;;;;7.12;3.90;;;;;;;17.31;100.00;99154.97;4419262;32;20039;-69
2022/07/08 03:16:23;;;;;;;5.60;3.67;;;;;;;17.29;100.00;99168.03;4420239;32;20345;-69
2022/07/08 03:18:49;;;;;;;3.67;3.37;;;;;;;17.35;100.00;99180.50;4419287;32;20115;-72
2022/07/08 03:21:16;;;;;;;4.07;3.72;;;;;;;17.58;100.00;99199.81;4417634;32;20056;-71
2022/07/08 03:23:42;;;;;;;4.20;3.85;;;;;;;17.27;100.00;99164.81;4419993;32;20030;-70
2022/07/08 03:26:08;;;;;;;5.72;4.05;;;;;;;17.57;100.00;99206.38;4420107;32;20058;-69
2022/07/08 03:28:35;;;;;;;5.22;3.58;;;;;;;17.60;100.00;99220.19;4419980;32;20046;-69
2022/07/08 03:31:01;;;;;;;5.55;4.05;;;;;;;17.61;100.00;99219.09;4419016;32;20026;-69
2022/07/08 03:33:28;;;;;;;6.25;3.92;;;;;;;17.59;100.00;99225.94;4419556;32;20404;-67
2022/07/08 03:35:54;;;;;;;3.72;3.45;;;;;;;17.21;100.00;99172.22;4418555;32;20383;-70
2022/07/08 03:38:20;;;;;;;5.37;3.50;;;;;;;17.61;100.00;99223.72;4419157;32;20073;-68
2022/07/08 03:43:31;;;;;;;11.77;4.00;;;;;;;17.25;100.00;99188.78;4419743;32;20068;-68
2022/07/08 03:45:58;;;;;;;5.68;3.90;;;;;;;17.46;100.00;99237.53;4419662;32;20031;-68
2022/07/08 03:48:24;;;;;;;5.53;4.37;;;;;;;17.26;100.00;99195.81;4419358;32;20068;-69
2022/07/08 03:50:50;;;;;;;5.00;4.50;;;;;;;17.51;100.00;99235.56;4419246;32;20059;-69
2022/07/08 03:53:17;;;;;;;9.65;4.15;;;;;;;17.48;100.00;99236.13;4419485;32;20387;-68
2022/07/08 03:55:49;;;;;;;3.80;3.50;;;;;;;17.22;100.00;99200.25;4418378;32;20076;-71
2022/07/08 03:58:16;;;;;;;6.93;3.92;;;;;;;17.46;100.00;99232.09;4417804;32;20033;-68
2022/07/08 04:00:42;;;;;;;7.65;3.67;;;;;;;16.96;100.00;99165.16;4419801;32;20692;-68
2022/07/08 04:03:09;;;;;;;10.95;3.65;;;;;;;17.14;100.00;99190.81;4419339;32;20042;-69
2022/07/08 04:05:35;;;;;;;5.22;4.00;;;;;;;17.56;100.00;99237.41;4418138;32;20438;-68
2022/07/08 04:08:02;;;;;;;5.55;4.43;;;;;;;17.60;100.00;99244.69;4418279;32;20026;-68
2022/07/08 04:10:28;;;;;;;7.80;4.57;;;;;;;17.37;100.00;99202.78;4419459;32;20041;-68
2022/07/08 04:12:55;;;;;;;8.65;4.62;;;;;;;17.69;100.00;99231.25;4417593;32;20043;-69
2022/07/08 04:15:22;;;;;;;5.12;4.28;;;;;;;17.61;100.00;99234.59;4418520;32;20034;-70
2022/07/08 04:17:48;;;;;;;7.25;4.35;;;;;;;17.56;100.00;99210.19;4418632;32;20051;-69
2022/07/08 04:20:15;;;;;;;5.30;4.62;;;;;;;17.77;100.00;99243.41;4405255;32;20034;-69
2022/07/08 04:22:41;;;;;;;7.68;4.68;;;;;;;17.89;100.00;99245.75;4417771;32;20039;-68
2022/07/08 04:25:08;;;;;;;4.95;4.55;;;;;;;17.74;100.00;99244.81;4418266;32;20034;-68
2022/07/08 04:27:35;;;;;;;9.15;4.93;;;;;;;17.86;100.00;99257.19;4419434;32;20064;-68
2022/07/08 04:30:01;;;;;;;5.62;4.62;;;;;;;17.82;100.00;99267.03;4418808;32;20034;-69
2022/07/08 04:32:28;;;;;;;9.00;4.55;;;;;;;17.86;100.00;99268.87;4419087;32;20035;-69
2022/07/08 04:34:58;;;;;;;6.05;5.40;;;;;;;17.67;100.00;99238.91;4419105;32;20050;-69
2022/07/08 04:37:26;;;;;;;7.53;5.37;;;;;;;17.69;100.00;99247.56;4417562;32;20030;-72
2022/07/08 04:39:53;;;;;;;6.53;5.50;;;;;;;17.86;100.00;99273.53;4417821;32;20038;-69
2022/07/08 04:42:21;;;;;;;6.97;5.60;;;;;;;17.86;100.00;99273.53;4418820;32;20254;-69
2022/07/08 04:44:47;;;;;;;10.98;6.05;;;;;;;17.47;100.00;99241.88;4418773;32;20038;-69
2022/07/08 04:47:13;;;;;;;8.30;5.60;;;;;;;17.75;100.00;99272.84;4417959;32;20027;-68
2022/07/08 04:49:40;;;;;;;6.70;5.93;;;;;;;17.68;100.00;99278.66;4418162;32;20525;-68
2022/07/08 04:52:06;;;;;;;9.43;5.82;;;;;;;17.60;100.00;99255.59;4417757;32;20372;-69
2022/07/08 04:54:34;;;;;;;6.70;5.57;;;;;;;17.32;100.00;99205.56;4418663;32;20065;-69
2022/07/08 04:57:00;;;;;;;15.25;6.60;;;;;;;17.49;100.00;99232.31;4418441;32;20107;-72
2022/07/08 04:59:26;;;;;;;7.93;6.65;;;;;;;17.61;100.00;99278.16;4417466;32;20038;-72
2022/07/08 05:01:53;;;;;;;6.40;5.78;;;;;;;17.78;100.00;99283.16;4403353;32;20026;-69
2022/07/08 05:04:19;;;;;;;8.18;6.10;;;;;;;17.92;100.00;99292.28;4418504;32;20329;-69
2022/07/08 05:06:45;;;;;;;11.25;6.97;;;;;;;17.79;100.00;99290.22;4418275;32;20050;-69
2022/07/08 05:09:12;;;;;;;12.60;6.68;;;;;;;17.67;100.00;99257.97;4418129;32;20060;-69
2022/07/08 05:11:39;;;;;;;11.12;6.93;;;;;;;17.82;100.00;99250.69;4416898;32;20068;-69
2022/07/08 05:14:05;;;;;;;6.78;5.95;;;;;;;18.03;100.00;99290.22;4418558;32;20038;-70
2022/07/08 05:16:32;;;;;;;11.77;7.82;;;;;;;18.14;100.00;99278.09;4417648;32;20064;-69
2022/07/08 05:19:00;;;;;;;9.25;7.93;;;;;;;18.28;100.00;99290.97;4404610;32;20432;-69
2022/07/08 05:21:27;;;;;;;12.88;7.43;;;;;;;18.36;100.00;99287.56;4416328;32;20035;-71
2022/07/08 05:23:53;;;;;;;12.37;7.43;;;;;;;18.38;100.00;99301.75;4417481;32;20064;-69
2022/07/08 05:26:19;;;;;;;12.20;7.10;;;;;;;18.44;100.00;99300.53;4404852;32;20050;-70
2022/07/08 05:28:46;;;;;;;7.70;6.93;;;;;;;18.46;100.00;99311.97;4418326;32;20375;-69
2022/07/08 05:31:12;;;;;;;11.02;7.05;;;;;;;17.92;100.00;99223.37;4417952;32;20064;-68
2022/07/08 05:33:45;;;;;;;8.18;6.20;;;;;;;18.50;100.00;99310.25;4417969;32;20479;-69
2022/07/08 05:36:11;;;;;;;11.35;6.78;;;;;;;18.58;100.00;99310.72;4417870;32;20383;-71
2022/07/08 05:38:38;;;;;;;9.30;7.03;;;;;;;18.77;100.00;99310.69;4415249;32;20379;-71
2022/07/08 05:41:04;;;;;;;7.35;6.45;;;;;;;18.74;100.00;99303.91;4417295;32;20465;-69
2022/07/08 05:43:30;;;;;;;6.55;5.85;;;;;;;18.81;100.00;99298.06;4417813;32;20619;-69
2022/07/08 05:45:57;;;;;;;7.00;6.05;;;;;;;18.87;100.00;99308.66;4417484;32;20214;-69
2022/07/08 05:48:24;;;;;;;7.32;4.95;;;;;;;18.88;100.00;99296.62;4417289;32;20042;-69
2022/07/08 05:50:50;;;;;;;7.07;5.12;;;;;;;18.67;100.00;99265.31;4417028;32;20514;-69
2022/07/08 05:53:17;;;;;;;9.27;5.43;;;;;;;19.02;100.00;99304.06;4416003;32;20041;-69
2022/07/08 05:55:44;;;;;;;15.95;6.18;;;;;;;18.69;100.00;99263.09;4417777;32;20042;-68
2022/07/08 05:58:10;;;;;;;10.10;5.75;;;;;;;18.54;100.00;99268.78;4417658;32;20072;-71
2022/07/08 06:00:37;;;;;;;8.93;6.25;;;;;;;18.69;100.00;99287.63;4416460;32;20309;-68
2022/07/08 06:03:05;;;;;;;14.55;6.87;;;;;;;18.74;100.00;99314.03;4417039;32;20435;-68
2022/07/08 06:05:32;;;;;;;11.02;7.47;;;;;;;18.58;100.00;99280.72;4417434;32;20093;-68
2022/07/08 06:07:58;;;;;;;12.77;9.15;;;;;;;18.80;100.00;99324.53;4417220;32;20050;-68
2022/07/08 06:10:28;;;;;;;9.45;7.82;;;;;;;18.70;100.00;99324.72;4417163;32;20034;-69
2022/07/08 06:12:54;;;;;;;9.70;6.82;;;;;;;18.73;100.00;99315.94;4417342;32;20034;-68
2022/07/08 06:15:21;;;;;;;6.53;5.85;;;;;;;18.80;100.00;99324.53;4417187;32;20187;-68
2022/07/08 06:17:47;;;;;;;12.90;6.70;;;;;;;18.64;100.00;99331.34;4417423;32;20464;-69
2022/07/08 06:20:14;;;;;;;16.73;6.70;;;;;;;18.37;100.00;99285.69;4416489;32;20387;-72
2022/07/08 06:22:43;;;;;;;10.63;8.43;;;;;;;18.64;100.00;99293.19;4416663;32;20042;-68
2022/07/08 06:25:10;;;;;;;15.30;7.78;;;;;;;18.60;100.00;99275.78;4416746;32;20161;-68
2022/07/08 06:27:36;;;;;;;7.75;6.87;;;;;;;18.26;100.00;99320.44;4416754;32;20071;-69
2022/07/08 06:30:03;;;;;;;9.23;6.40;;;;;;;18.45;100.00;99295.91;4416829;32;20045;-68
2022/07/08 06:32:29;;;;;;;12.05;8.07;;;;;;;18.59;100.00;99287.78;4417291;32;20379;-69
2022/07/08 06:34:55;;;;;;;11.70;8.35;;;;;;;18.79;100.00;99300.28;4417535;32;20056;-68
2022/07/08 06:37:22;;;;;;;11.57;6.35;;;;;;;19.12;100.00;99328.44;4415781;32;20081;-72
2022/07/08 06:39:48;;;;;;;9.40;6.62;;;;;;;19.27;100.00;99326.53;4416150;32;20031;-68
2022/07/08 06:42:16;;;;;;;9.32;7.03;;;;;;;19.04;100.00;99291.72;4417140;32;20191;-69
2022/07/08 06:44:43;;;;;;;17.17;7.97;;;;;;;19.23;100.00;99329.87;4416106;32;20034;-69
2022/07/08 06:47:11;;;;;;;9.57;6.03;;;;;;;19.14;100.00;99296.19;4417240;32;20053;-70
2022/07/08 06:49:37;;;;;;;5.62;5.12;;;;;;;19.23;100.00;99329.87;4415738;32;20360;-69
2022/07/08 06:52:04;;;;;;;8.73;4.75;;;;;;;18.66;100.00;99340.03;4416567;32;20049;-70
2022/07/08 06:54:37;;;;;;;6.85;5.05;;;;;;;18.92;100.00;99336.94;4416443;32;20077;-72
2022/07/08 06:57:07;;;;;;;10.85;5.50;;;;;;;19.34;100.00;99321.50;4416849;32;20045;-69
2022/07/08 06:59:38;;;;;;;7.12;6.40;;;;;;;19.68;100.00;99326.59;4416987;32;20059;-69
2022/07/08 07:02:04;;;;;;;5.43;4.22;;;;;;;19.54;100.00;99326.56;4416857;32;20064;-68
2022/07/08 07:04:31;;;;;;;4.95;4.12;;;;;;;19.18;100.00;99290.94;4417683;32;20034;-69
2022/07/08 07:06:57;;;;;;;4.43;3.95;;;;;;;19.81;100.00;99330.47;4417754;32;20482;-71
2022/07/08 07:09:23;;;;;;;4.05;3.70;;;;;;;19.88;100.00;99283.59;4403840;32;20026;-68
2022/07/08 07:11:50;;;;;;;4.22;3.83;;;;;;;20.25;100.00;99323.53;4415228;32;20031;-69
2022/07/08 07:14:17;;;;;;;6.37;3.40;;;;;;;19.55;100.00;99284.50;4416828;32;20311;-69
2022/07/08 07:16:43;;;;;;;3.75;3.40;;;;;;;19.66;100.00;99317.09;4416612;32;20057;-68
2022/07/08 07:19:09;;;;;;;3.05;2.85;;;;;;;19.53;100.00;99322.25;4416335;32;20164;-68
2022/07/08 07:21:36;;;;;;;3.42;3.22;;;;;;;19.16;100.00;99332.19;4415430;32;20130;-69
2022/07/08 07:24:02;;;;;;;5.62;3.70;;;;;;;19.34;100.00;99296.94;4416543;32;20060;-69
2022/07/08 07:26:28;;;;;;;5.97;3.42;;;;;;;19.06;100.00;99292.22;4415116;32;20387;-69
2022/07/08 07:28:55;;;;;;;5.05;3.12;;;;;;;19.38;100.00;99327.97;4416468;32;20485;-69
2022/07/08 07:31:22;;;;;;;3.65;2.78;;;;;;;19.65;100.00;99310.00;4414707;32;20074;-72
2022/07/08 07:33:48;;;;;;;3.30;3.10;;;;;;;19.98;100.00;99332.59;4415147;32;20356;-70
2022/07/08 07:36:14;;;;;;;24.30;5.12;;;;;;;19.30;100.00;99299.44;4416346;32;20375;-69
2022/07/08 07:38:41;;;;;;;6.00;3.67;;;;;;;18.89;100.00;99289.25;4416662;32;20073;-69
2022/07/08 07:41:15;;;;;;;4.30;3.45;;;;;;;19.02;100.00;99295.88;4419116;32;20052;-69
2022/07/08 07:43:42;;;;;;;3.60;3.33;;;;;;;19.33;100.00;99303.50;4418799;32;20105;-68
2022/07/08 07:46:08;;;;;;;3.75;3.40;;;;;;;19.48;100.00;99340.63;4419474;32;20042;-68
2022/07/08 07:48:35;;;;;;;4.03;3.55;;;;;;;19.43;100.00;99311.50;4419647;32;20425;-70
2022/07/08 07:51:01;;;;;;;3.92;3.55;;;;;;;19.84;100.00;99334.53;4417838;32;20082;-71
2022/07/08 07:53:28;;;;;;;7.00;4.30;;;;;;;19.99;100.00;99330.66;4417293;32;20060;-70
2022/07/08 07:55:54;;;;;;;5.47;3.83;;;;;;;20.15;100.00;99342.88;4419215;32;20237;-69
2022/07/08 07:58:21;;;;;;;3.97;3.65;;;;;;;19.99;100.00;99349.78;4419216;32;20062;-69
2022/07/08 08:00:47;;;;;;;7.45;3.80;;;;;;;20.02;100.00;99351.91;4419098;32;20075;-69
2022/07/08 08:03:14;;;;;;;4.82;4.47;;;;;;;19.11;100.00;99334.19;4418859;32;20087;-69
2022/07/08 08:05:42;;;;;;;10.60;4.82;;;;;;;19.28;100.00;99318.06;4418880;32;20046;-69
2022/07/08 08:08:11;;;;;;;7.37;4.85;;;;;;;19.29;100.00;99286.09;4419381;32;20416;-69
2022/07/08 08:10:38;;;;;;;4.72;4.32;;;;;;;19.58;100.00;99343.97;4418235;32;20064;-71
2022/07/08 08:13:04;;;;;;;7.25;5.00;;;;;;;19.11;100.00;99304.97;4416949;32;20360;-72
2022/07/08 08:15:31;;;;;;;8.13;4.93;;;;;;;19.41;100.00;99344.56;4419018;32;20050;-69
2022/07/08 08:17:57;;;;;;;7.95;5.25;;;;;;;19.28;100.00;99341.81;4418929;32;20468;-69
2022/07/08 08:20:26;;;;;;;6.20;4.30;;;;;;;19.56;100.00;99334.47;4418732;32;20062;-68
2022/07/08 08:22:53;;;;;;;5.28;4.82;;;;;;;19.71;100.00;99330.66;4418802;32;20038;-68
2022/07/08 08:25:20;;;;;;;7.68;4.57;;;;;;;19.40;100.00;99342.12;4418715;32;20042;-68
2022/07/08 08:27:47;;;;;;;5.87;4.18;;;;;;;19.35;100.00;99301.28;4417938;32;20064;-68
2022/07/08 08:30:15;;;;;;;4.65;4.20;;;;;;;20.07;100.00;99338.97;4418549;32;20064;-69
2022/07/08 08:32:41;;;;;;;4.78;4.22;;;;;;;20.53;100.00;99334.41;4417557;32;20081;-70
2022/07/08 08:35:09;;;;;;;5.55;4.80;;;;;;;20.47;100.00;99313.75;4415815;32;20079;-72
2022/07/08 08:37:35;;;;;;;3.53;3.33;;;;;;;20.32;100.00;99280.16;4417734;32;20035;-69
2022/07/08 08:40:07;;;;;;;5.45;3.95;;;;;;;20.45;100.00;99288.66;4418897;32;20748;-69
2022/07/08 08:42:33;;;;;;;4.10;3.78;;;;;;;20.80;100.00;99332.72;4418766;32;20382;-69
2022/07/08 08:45:00;;;;;;;6.93;3.85;;;;;;;20.71;100.00;99324.47;4417801;32;20042;-68
2022/07/08 08:47:28;;;;;;;8.65;3.50;;;;;;;20.53;100.00;99328.94;4419799;32;20060;-70
2022/07/08 08:49:56;;;;;;;4.00;3.70;;;;;;;20.49;100.00;99338.87;4418176;32;20361;-69
2022/07/08 08:52:23;;;;;;;12.05;3.80;;;;;;;19.89;100.00;99321.56;4415830;32;20380;-69
2022/07/08 08:54:51;;;;;;;3.65;3.45;;;;;;;19.70;100.00;99361.78;4418195;32;20050;-68
2022/07/08 08:57:20;;;;;;;8.98;4.57;;;;;;;19.30;100.00;99331.41;4418129;32;20059;-69
2022/07/08 08:59:46;;;;;;;6.93;4.87;;;;;;;19.12;100.00;99325.69;4418439;32;20046;-69
2022/07/08 09:02:13;;;;;;;10.60;5.53;;;;;;;19.45;100.00;99365.78;4418267;32;20083;-69
2022/07/08 09:04:40;;;;;;;7.07;5.68;;;;;;;19.32;100.00;99373.69;4418037;32;20064;-69
2022/07/08 09:07:07;;;;;;;7.12;5.60;;;;;;;18.62;100.00;99345.28;4417824;32;20046;-68
2022/07/08 09:09:33;;;;;;;7.32;6.62;;;;;;;18.95;100.00;99385.47;4417661;32;20038;-70
2022/07/08 09:12:17;;;;;;;7.53;6.80;;;;;;;18.37;100.00;99354.63;4416825;32;20079;-71
2022/07/08 09:14:52;;;;;;;7.90;7.10;;;;;;;18.65;100.00;99382.88;4418337;32;20043;-69
2022/07/08 09:17:18;;;;;;;10.25;7.18;;;;;;;18.70;100.00;99379.28;4417985;32;20042;-68
2022/07/08 09:19:49;;;;;;;7.35;6.57;;;;;;;18.85;100.00;99381.78;4417822;32;20042;-69
2022/07/08 09:22:16;;;;;;;9.23;6.87;;;;;;;18.60;100.00;99341.22;4390325;32;20326;-69
2022/07/08 09:24:44;;;;;;;12.10;7.68;;;;;;;18.86;100.00;99383.41;4403669;32;20042;-69
2022/07/08 09:27:16;;;;;;;11.12;6.28;;;;;;;19.00;100.00;99388.94;4418271;32;20069;-69
2022/07/08 09:30:00;;;;;;;7.72;7.03;;;;;;;19.05;100.00;99385.28;4417551;32;20433;-69
2022/07/08 09:32:27;;;;;;;7.18;6.53;;;;;;;19.13;100.00;99364.72;4417186;32;20424;-69
2022/07/08 09:34:53;;;;;;;6.78;6.07;;;;;;;19.43;100.00;99377.03;4416492;32;20064;-69
2022/07/08 09:37:21;;;;;;;7.50;6.70;;;;;;;19.47;100.00;99379.97;4417920;32;20042;-70
2022/07/08 09:39:48;;;;;;;6.35;5.75;;;;;;;19.40;100.00;99336.66;4417547;32;20161;-70
2022/07/08 09:42:15;;;;;;;6.60;5.50;;;;;;;19.68;100.00;99374.94;4417678;32;20038;-69
2022/07/08 09:44:42;;;;;;;7.53;4.85;;;;;;;19.78;100.00;99370.16;4417347;32;20103;-69
2022/07/08 09:47:13;;;;;;;5.65;5.15;;;;;;;19.68;100.00;99358.56;4417535;32;20072;-68
2022/07/08 09:49:45;;;;;;;5.60;5.03;;;;;;;19.98;100.00;99361.84;4416340;32;20372;-68
2022/07/08 09:52:20;;;;;;;6.85;4.57;;;;;;;19.93;100.00;99365.50;4415642;32;20177;-71
2022/07/08 09:54:58;;;;;;;9.32;4.50;;;;;;;20.15;100.00;99362.00;4417421;32;20683;-68
2022/07/08 09:57:25;;;;;;;4.57;3.95;;;;;;;20.23;100.00;99325.78;4417420;32;20046;-69
2022/07/08 09:59:53;;;;;;;5.95;3.83;;;;;;;20.73;100.00;99348.78;4417739;32;20548;-69
2022/07/08 10:02:19;;;;;;;3.67;3.37;;;;;;;20.85;100.00;99347.09;4417776;32;20053;-70
2022/07/08 10:04:48;;;;;;;4.60;3.17;;;;;;;20.91;100.00;99312.19;4416311;32;20080;-70
2022/07/08 10:07:14;;;;;;;2.30;2.20;;;;;;;20.99;100.00;99357.97;4417078;32;20064;-68
2022/07/08 10:09:40;;;;;;;3.10;2.87;;;;;;;20.65;100.00;99336.63;4402951;32;20565;-69
2022/07/08 10:12:14;;;;;;;2.87;2.67;;;;;;;20.90;100.00;99345.34;4417275;32;20050;-69
2022/07/08 10:14:45;;;;;;;3.25;2.40;;;;;;;21.12;100.00;99350.03;4417275;32;20042;-69
2022/07/08 10:17:16;;;;;;;1.70;1.70;;;;;;;20.61;100.00;99319.97;4417354;32;20081;-69
2022/07/08 10:19:46;;;;;;;4.72;2.47;;;;;;;20.93;100.00;99342.78;4416951;32;20033;-70
2022/07/08 10:22:15;;;;;;;5.43;3.53;;;;;;;20.56;100.00;99366.63;4414619;32;20039;-72
2022/07/08 10:24:43;;;;;;;7.00;2.78;;;;;;;19.62;100.00;99313.34;4417082;32;20077;-69
2022/07/08 10:27:10;;;;;;;3.42;3.12;;;;;;;19.67;100.00;99367.87;4402984;32;20039;-69
2022/07/08 10:29:40;;;;;;;5.22;3.53;;;;;;;18.82;100.00;99316.88;4416962;32;20042;-70
2022/07/08 10:32:45;;;;;;;8.00;4.85;;;;;;;19.12;100.00;99344.00;4416772;32;20046;-69
2022/07/08 10:37:59;;;;;;;11.98;5.10;;;;;;;18.73;100.00;99324.13;4369591;32;20385;-68
2022/07/08 10:40:40;;;;;;;9.38;4.97;;;;;;;18.43;100.00;99322.66;4369257;32;20578;-68
2022/07/08 10:43:18;;;;;;;9.40;4.70;;;;;;;18.84;100.00;99336.53;4367959;32;20042;-71
2022/07/08 10:46:14;;;;;;;10.50;4.90;;;;;;;19.15;100.00;99349.66;4369644;32;20132;-69
2022/07/08 10:48:41;;;;;;;8.60;5.00;;;;;;;19.35;100.00;99339.50;4368175;32;20061;-69
2022/07/08 10:51:25;;;;;;;4.07;3.78;;;;;;;19.58;100.00;99338.53;4368780;32;20073;-72
2022/07/08 10:53:52;;;;;;;7.18;4.28;;;;;;;19.68;100.00;99336.72;4367627;32;20370;-69
2022/07/08 10:56:48;;;;;;;5.68;4.15;;;;;;;19.72;100.00;99337.72;4369519;32;20035;-69
2022/07/08 10:59:14;;;;;;;5.55;4.15;;;;;;;20.08;100.00;99334.31;4368102;32;20048;-71
2022/07/08 11:01:41;;;;;;;4.68;4.28;;;;;;;20.33;100.00;99270.88;4368788;32;20039;-69
2022/07/08 11:04:42;;;;;;;5.03;4.18;;;;;;;20.65;100.00;99318.28;4368990;32;20077;-69
2022/07/08 11:07:14;;;;;;;5.68;5.15;;;;;;;20.50;100.00;99324.06;4338653;32;20039;-69
2022/07/08 11:09:41;;;;;;;;;;;;;;;20.69;100.00;99321.22;4400285;32;20060;-70
2022/07/08 11:12:19;;;;;;;21.67;4.25;;;;;;;20.68;100.00;99325.09;4402005;32;19944;-69
2022/07/08 11:14:48;;;;;;;19.50;4.55;;;;;;;19.92;100.00;99307.28;4417846;32;20043;-69
2022/07/08 11:17:19;;;;;;;4.75;4.28;;;;;;;19.70;100.00;99359.06;4419165;32;20060;-69
2022/07/08 11:19:48;;;;;;;6.62;5.43;;;;;;;19.38;100.00;99355.28;4419803;32;20425;-69
2022/07/08 11:22:15;;;;;;;8.73;6.12;;;;;;;19.53;100.00;99352.28;4419825;32;20043;-69
2022/07/08 11:24:43;;;;;;;9.63;5.72;;;;;;;19.49;100.00;99334.88;4419016;32;20048;-72
2022/07/08 11:27:10;;;;;;;9.65;5.57;;;;;;;19.17;100.00;99319.34;4418536;32;20387;-72
2022/07/08 11:29:36;;;;;;;12.18;6.90;;;;;;;19.05;100.00;99319.78;4419432;32;20482;-69
2022/07/08 11:32:05;;;;;;;9.93;6.75;;;;;;;19.29;100.00;99335.22;4419664;32;20085;-69
2022/07/08 11:34:32;;;;;;;8.20;5.82;;;;;;;19.24;100.00;99358.78;4419549;32;20038;-69